Flight Track Log - Related Links

Times and Time Zones

All times are in EDT time to prevent confusion due to time zone crossing. See the AWI3778 flight status page for this flight to view local times or setup timezone preferences in your user account.

Time Position Orientation Groundspeed Altitude Reporting Facility
EDT Latitude Longitude Course Direction KTS km/h feet Rate Location/Type
Thu 14:05:48 44.4556 -73.3794 194° South 246 455 6.800  Level Boston Center
Thu 14:06:48 44.3969 -73.3931 189° South 252 467 8.600 2.350 Climbing Boston Center
Thu 14:07:00 43.9699 -73.3388 196° South  Level FlightAware Approximate
Thu 14:07:48 44.2925 -73.4233 192° South 290 538 11.500  Level Boston Center
Thu 14:08:00 43.8705 -73.3776 195° South  Level FlightAware Approximate
Thu 14:08:48 44.2092 -73.4306 184° South 305 565 13.500  Level Boston Center
Thu 14:09:00 43.7708 -73.4144 195° South  Level FlightAware Approximate
Thu 14:09:48 44.1217 -73.4206 175° South 310 575 15.400  Level Boston Center
Thu 14:10:00 43.6711 -73.4511 195° South  Level FlightAware Approximate
Thu 14:10:48 44.0361 -73.4336 186° South 316 586 17.200  Level Boston Center
Thu 14:11:00 43.5713 -73.4874 194° South  Level FlightAware Approximate
Thu 14:11:48 43.9586 -73.4928 209° Southwest 308 570 19.100  Level Boston Center
Thu 14:12:48 43.8828 -73.5606 213° Southwest 318 589 20.200 950 Climbing Boston Center
Thu 14:13:48 43.8031 -73.6281 211° Southwest 329 610 21.000 909 Climbing Boston Center
Thu 14:15:00 43.7106 -73.7067 212° Southwest 347 642 22.200 909 Climbing Boston Center
Thu 14:16:00 43.6286 -73.7711 210° Southwest 347 642 23.000 800 Climbing Boston Center
Thu 14:17:00 43.5400 -73.8436 211° Southwest 352 652 23.800 500 Climbing Boston Center
Thu 14:18:00 43.4539 -73.9131 210° Southwest 362 671 24.000 100 Climbing Boston Center
Thu 14:19:00 43.3653 -73.9908 213° Southwest 375 695 24.000  Level Boston Center
Thu 14:20:00 43.2767 -74.0656 212° Southwest 375 695 24.000  Level Boston Center
Thu 14:21:00 43.1881 -74.1372 211° Southwest 375 695 24.000  Level Boston Center
Thu 14:22:00 43.1014 -74.2117 212° Southwest 375 695 24.000  Level Boston Center
Thu 14:23:00 43.0150 -74.2803 210° Southwest 369 684 24.000  Level Boston Center
Thu 14:24:00 42.9283 -74.3514 211° Southwest 369 684 24.000  Level Boston Center
Thu 14:25:00 42.8417 -74.4222 211° Southwest 369 684 24.000  Level Boston Center
Thu 14:26:00 42.7569 -74.4931 212° Southwest 369 684 24.000  Level Boston Center
Thu 14:27:00 42.6703 -74.5636 211° Southwest 369 684 24.000  Level Boston Center
Thu 14:28:00 42.5856 -74.6339 211° Southwest 369 684 24.000  Level Boston Center
Thu 14:29:00 42.4989 -74.7014 210° Southwest 364 674 24.000  Level Boston Center
Thu 14:30:00 42.4139 -74.7714 211° Southwest 369 684 24.000  Level Boston Center
Thu 14:31:01 42.3272 -74.8383 210° Southwest 369 684 24.000  Level Boston Center
Thu 14:32:00 42.2422 -74.9081 211° Southwest 369 684 24.000 -50 Level Boston Center
Thu 14:33:00 42.1553 -74.9803 212° Southwest 369 684 23.900 -1.519 Descending Boston Center
Thu 14:34:38 42.0156 -75.0922 211° Southwest 351 650 20.000 -1.885 Descending New York Center
Thu 14:35:36 41.9403 -75.1569 213° Southwest 351 650 19.000 -504 Descending New York Center
Thu 14:36:37 41.8544 -75.2236 210° Southwest 359 665 19.000 -347 Level New York Center
Thu 14:37:37 41.7600 -75.3006 211° Southwest 359 665 18.300 -1.339 Descending New York Center
Thu 14:38:38 41.6717 -75.3725 211° Southwest 369 684 16.300 -1.785 Descending New York Center
Thu 14:39:38 41.5858 -75.4414 211° Southwest 369 684 14.700 -1.563 Descending New York Center
Thu 14:40:37 41.5128 -75.5000 211° Southwest 362 671 13.200 -1.361 Descending New York Center
Thu 14:41:37 41.4311 -75.5633 210° Southwest 356 660 12.000 -605 Descending New York Center
Thu 14:42:36 41.3406 -75.6344 211° Southwest 351 650 12.000 -645 Level New York Center
Thu 14:43:38 41.2592 -75.6892 207° Southwest 351 650 10.700 -1.000 Descending New York Center
Thu 14:44:36 41.1681 -75.6769 174° South 324 600 10.000 -356 Descending New York Center
Thu 14:45:36 41.0903 -75.6467 164° South 319 591 10.000  Level New York Center
Thu 14:46:37 40.9914 -75.6175 167° South 331 613 10.000  Level New York Center
Thu 14:47:38 40.9111 -75.5900 165° South 336 623 10.000  Level New York Center
Thu 14:48:38 40.8228 -75.5589 165° South 336 623 10.000  Level New York Center
Thu 14:49:39 40.7344 -75.5281 165° South 336 623 10.000  Level New York Center
Thu 14:50:38 40.6461 -75.5000 166° South 336 623 10.000  Level New York Center
Thu 14:51:36 40.5578 -75.4694 165° South 330 612 10.000  Level New York Center
Thu 14:52:37 40.4775 -75.4419 165° South 325 602 10.000 -347 Level New York Center
Thu 14:53:37 40.3950 -75.4175 167° South 289 536 9.300 -1.361 Descending New York Center
Thu 14:54:36 40.3269 -75.4564 204° Southwest 253 468 7.300 -1.412 Descending New York Center
Thu 14:55:36 40.2653 -75.4306 162° South 238 441 6.500 -1.140 Descending New York Center
Thu 14:56:37 40.2144 -75.4000 155° Southeast 238 441 5.000 -1.230 Descending New York Center
Thu 14:57:38 40.1508 -75.3711 161° South 233 431 4.000 -504 Descending New York Center
Thu 14:58:36 40.1019 -75.3461 159° South 216 401 4.000 -300 Level New York Center
Thu 14:59:38 40.0486 -75.3211 160° South 200 370 3.400 -787 Descending New York Center
Thu 15:00:38 40.0039 -75.2964 157° South 200 370 2.400 -1.000 Descending New York Center

Login

Don't have an account? Register now (free) for customized features, flight alerts, and more!